sensor_id;sensor_type;location;lat;lon;timestamp;P1;durP1;ratioP1;P2;durP2;ratioP2
70532;SDS011;58088;51.186;17.130;2023-07-28T00:00:53;5.60;;;2.00;;
70532;SDS011;58088;51.186;17.130;2023-07-28T00:03:19;5.30;;;2.20;;
70532;SDS011;58088;51.186;17.130;2023-07-28T00:05:45;3.50;;;2.00;;
70532;SDS011;58088;51.186;17.130;2023-07-28T00:08:12;4.20;;;2.10;;
70532;SDS011;58088;51.186;17.130;2023-07-28T00:10:41;5.60;;;2.40;;
70532;SDS011;58088;51.186;17.130;2023-07-28T00:13:09;3.80;;;1.70;;
70532;SDS011;58088;51.186;17.130;2023-07-28T00:15:35;5.40;;;2.00;;
70532;SDS011;58088;51.186;17.130;2023-07-28T00:18:02;4.20;;;2.00;;
70532;SDS011;58088;51.186;17.130;2023-07-28T00:20:28;4.30;;;1.80;;
70532;SDS011;58088;51.186;17.130;2023-07-28T00:22:54;4.40;;;2.10;;
70532;SDS011;58088;51.186;17.130;2023-07-28T00:25:20;6.40;;;2.00;;
70532;SDS011;58088;51.186;17.130;2023-07-28T00:27:47;4.40;;;2.10;;
70532;SDS011;58088;51.186;17.130;2023-07-28T00:30:14;4.20;;;1.90;;
70532;SDS011;58088;51.186;17.130;2023-07-28T00:32:40;3.90;;;1.90;;
70532;SDS011;58088;51.186;17.130;2023-07-28T00:35:06;4.20;;;2.10;;
70532;SDS011;58088;51.186;17.130;2023-07-28T00:37:33;4.90;;;2.20;;
70532;SDS011;58088;51.186;17.130;2023-07-28T00:39:59;4.00;;;1.90;;
70532;SDS011;58088;51.186;17.130;2023-07-28T00:42:26;4.10;;;2.10;;
70532;SDS011;58088;51.186;17.130;2023-07-28T00:44:53;5.20;;;2.20;;
70532;SDS011;58088;51.186;17.130;2023-07-28T00:47:20;5.20;;;1.90;;
70532;SDS011;58088;51.186;17.130;2023-07-28T00:49:47;5.60;;;1.70;;
70532;SDS011;58088;51.186;17.130;2023-07-28T00:52:13;4.40;;;1.70;;
70532;SDS011;58088;51.186;17.130;2023-07-28T00:54:41;3.90;;;1.70;;
70532;SDS011;58088;51.186;17.130;2023-07-28T00:57:08;4.90;;;1.70;;
70532;SDS011;58088;51.186;17.130;2023-07-28T00:59:36;4.10;;;1.80;;
70532;SDS011;58088;51.186;17.130;2023-07-28T01:02:03;3.90;;;1.90;;
70532;SDS011;58088;51.186;17.130;2023-07-28T01:04:31;4.00;;;1.80;;
70532;SDS011;58088;51.186;17.130;2023-07-28T01:07:06;4.60;;;1.90;;
70532;SDS011;58088;51.186;17.130;2023-07-28T01:09:45;3.50;;;2.00;;
70532;SDS011;58088;51.186;17.130;2023-07-28T01:12:16;3.80;;;1.90;;
70532;SDS011;58088;51.186;17.130;2023-07-28T01:14:43;4.90;;;1.80;;
70532;SDS011;58088;51.186;17.130;2023-07-28T01:17:10;3.70;;;1.70;;
70532;SDS011;58088;51.186;17.130;2023-07-28T01:19:37;5.90;;;1.80;;
70532;SDS011;58088;51.186;17.130;2023-07-28T01:22:41;4.10;;;1.80;;
70532;SDS011;58088;51.186;17.130;2023-07-28T01:26:17;3.50;;;1.70;;
70532;SDS011;58088;51.186;17.130;2023-07-28T01:28:28;4.60;;;1.50;;
70532;SDS011;58088;51.186;17.130;2023-07-28T01:30:54;4.20;;;1.90;;
70532;SDS011;58088;51.186;17.130;2023-07-28T01:33:21;3.80;;;1.80;;
70532;SDS011;58088;51.186;17.130;2023-07-28T01:35:47;5.20;;;1.70;;
70532;SDS011;58088;51.186;17.130;2023-07-28T01:38:14;4.40;;;1.90;;
70532;SDS011;58088;51.186;17.130;2023-07-28T01:40:41;4.60;;;1.60;;
70532;SDS011;58088;51.186;17.130;2023-07-28T01:43:08;4.20;;;1.80;;
70532;SDS011;58088;51.186;17.130;2023-07-28T01:45:34;4.80;;;1.80;;
70532;SDS011;58088;51.186;17.130;2023-07-28T01:48:00;4.80;;;1.70;;
70532;SDS011;58088;51.186;17.130;2023-07-28T01:50:26;4.70;;;2.00;;
70532;SDS011;58088;51.186;17.130;2023-07-28T01:52:52;4.10;;;1.90;;
70532;SDS011;58088;51.186;17.130;2023-07-28T01:55:18;5.10;;;2.00;;
70532;SDS011;58088;51.186;17.130;2023-07-28T01:58:01;4.30;;;2.10;;
70532;SDS011;58088;51.186;17.130;2023-07-28T02:00:28;6.60;;;2.20;;
70532;SDS011;58088;51.186;17.130;2023-07-28T02:03:13;4.90;;;2.50;;
70532;SDS011;58088;51.186;17.130;2023-07-28T02:05:39;4.60;;;2.20;;
70532;SDS011;58088;51.186;17.130;2023-07-28T02:08:05;5.30;;;2.30;;
70532;SDS011;58088;51.186;17.130;2023-07-28T02:10:31;5.00;;;2.20;;
70532;SDS011;58088;51.186;17.130;2023-07-28T02:12:57;5.80;;;2.50;;
70532;SDS011;58088;51.186;17.130;2023-07-28T02:15:24;6.60;;;2.50;;
70532;SDS011;58088;51.186;17.130;2023-07-28T02:17:50;7.20;;;2.80;;
70532;SDS011;58088;51.186;17.130;2023-07-28T02:20:16;5.20;;;2.90;;
70532;SDS011;58088;51.186;17.130;2023-07-28T02:22:43;6.90;;;3.30;;
70532;SDS011;58088;51.186;17.130;2023-07-28T02:25:10;6.40;;;3.70;;
70532;SDS011;58088;51.186;17.130;2023-07-28T02:27:39;8.00;;;3.50;;
70532;SDS011;58088;51.186;17.130;2023-07-28T02:30:06;9.20;;;3.80;;
70532;SDS011;58088;51.186;17.130;2023-07-28T02:32:33;7.20;;;3.50;;
70532;SDS011;58088;51.186;17.130;2023-07-28T02:34:59;7.80;;;4.00;;
70532;SDS011;58088;51.186;17.130;2023-07-28T02:37:26;6.20;;;3.80;;
70532;SDS011;58088;51.186;17.130;2023-07-28T02:39:52;6.30;;;3.80;;
70532;SDS011;58088;51.186;17.130;2023-07-28T02:42:18;8.40;;;4.30;;
70532;SDS011;58088;51.186;17.130;2023-07-28T02:44:44;8.20;;;4.50;;
70532;SDS011;58088;51.186;17.130;2023-07-28T02:47:11;8.20;;;4.90;;
70532;SDS011;58088;51.186;17.130;2023-07-28T02:49:37;7.40;;;4.40;;
70532;SDS011;58088;51.186;17.130;2023-07-28T02:52:03;9.00;;;5.30;;
70532;SDS011;58088;51.186;17.130;2023-07-28T02:54:29;7.20;;;4.70;;
70532;SDS011;58088;51.186;17.130;2023-07-28T02:56:56;7.40;;;5.00;;
70532;SDS011;58088;51.186;17.130;2023-07-28T02:59:22;8.20;;;5.20;;
70532;SDS011;58088;51.186;17.130;2023-07-28T03:01:49;9.50;;;5.30;;
70532;SDS011;58088;51.186;17.130;2023-07-28T03:04:20;8.00;;;5.20;;
70532;SDS011;58088;51.186;17.130;2023-07-28T03:07:19;8.60;;;5.50;;
70532;SDS011;58088;51.186;17.130;2023-07-28T03:09:49;8.80;;;5.10;;
70532;SDS011;58088;51.186;17.130;2023-07-28T03:12:16;9.40;;;5.70;;
70532;SDS011;58088;51.186;17.130;2023-07-28T03:14:42;8.30;;;5.90;;
70532;SDS011;58088;51.186;17.130;2023-07-28T03:17:08;7.90;;;5.40;;
70532;SDS011;58088;51.186;17.130;2023-07-28T03:19:35;11.20;;;5.50;;
70532;SDS011;58088;51.186;17.130;2023-07-28T03:22:01;7.40;;;5.10;;
70532;SDS011;58088;51.186;17.130;2023-07-28T03:24:28;8.30;;;5.10;;
70532;SDS011;58088;51.186;17.130;2023-07-28T03:26:54;8.30;;;5.50;;
70532;SDS011;58088;51.186;17.130;2023-07-28T03:29:21;8.20;;;5.20;;
70532;SDS011;58088;51.186;17.130;2023-07-28T03:31:48;7.90;;;5.30;;
70532;SDS011;58088;51.186;17.130;2023-07-28T03:34:16;9.20;;;5.50;;
70532;SDS011;58088;51.186;17.130;2023-07-28T03:36:44;8.10;;;5.60;;
70532;SDS011;58088;51.186;17.130;2023-07-28T03:39:10;8.30;;;5.40;;
70532;SDS011;58088;51.186;17.130;2023-07-28T03:41:36;8.60;;;5.40;;
70532;SDS011;58088;51.186;17.130;2023-07-28T03:44:02;6.30;;;4.70;;
70532;SDS011;58088;51.186;17.130;2023-07-28T03:46:29;7.70;;;4.80;;
70532;SDS011;58088;51.186;17.130;2023-07-28T03:48:55;8.80;;;4.80;;
70532;SDS011;58088;51.186;17.130;2023-07-28T03:51:24;9.40;;;5.00;;
70532;SDS011;58088;51.186;17.130;2023-07-28T03:53:50;7.60;;;5.00;;
70532;SDS011;58088;51.186;17.130;2023-07-28T03:56:16;7.50;;;4.60;;
70532;SDS011;58088;51.186;17.130;2023-07-28T03:58:42;7.10;;;4.60;;
70532;SDS011;58088;51.186;17.130;2023-07-28T04:01:09;7.60;;;4.50;;
70532;SDS011;58088;51.186;17.130;2023-07-28T04:03:35;7.10;;;4.90;;
70532;SDS011;58088;51.186;17.130;2023-07-28T04:06:09;6.80;;;4.20;;
70532;SDS011;58088;51.186;17.130;2023-07-28T04:08:37;8.30;;;4.40;;
70532;SDS011;58088;51.186;17.130;2023-07-28T04:11:04;8.10;;;4.20;;
70532;SDS011;58088;51.186;17.130;2023-07-28T04:13:32;5.80;;;4.00;;
70532;SDS011;58088;51.186;17.130;2023-07-28T04:15:59;8.10;;;4.50;;
70532;SDS011;58088;51.186;17.130;2023-07-28T04:18:26;7.20;;;4.10;;
70532;SDS011;58088;51.186;17.130;2023-07-28T04:20:52;6.20;;;3.90;;
70532;SDS011;58088;51.186;17.130;2023-07-28T04:23:20;7.80;;;4.00;;
70532;SDS011;58088;51.186;17.130;2023-07-28T04:25:46;7.80;;;3.90;;
70532;SDS011;58088;51.186;17.130;2023-07-28T04:28:12;6.00;;;4.00;;
70532;SDS011;58088;51.186;17.130;2023-07-28T04:30:39;5.10;;;3.40;;
70532;SDS011;58088;51.186;17.130;2023-07-28T04:33:06;7.30;;;3.90;;
70532;SDS011;58088;51.186;17.130;2023-07-28T04:35:36;5.50;;;3.60;;
70532;SDS011;58088;51.186;17.130;2023-07-28T04:38:12;6.80;;;4.00;;
70532;SDS011;58088;51.186;17.130;2023-07-28T04:40:45;5.80;;;3.40;;
70532;SDS011;58088;51.186;17.130;2023-07-28T04:43:11;5.30;;;3.30;;
70532;SDS011;58088;51.186;17.130;2023-07-28T04:45:39;6.70;;;3.90;;
70532;SDS011;58088;51.186;17.130;2023-07-28T04:48:10;6.60;;;4.00;;
70532;SDS011;58088;51.186;17.130;2023-07-28T04:50:37;6.20;;;3.90;;
70532;SDS011;58088;51.186;17.130;2023-07-28T04:53:12;7.40;;;4.10;;
70532;SDS011;58088;51.186;17.130;2023-07-28T04:55:49;5.20;;;3.60;;
70532;SDS011;58088;51.186;17.130;2023-07-28T04:58:15;7.70;;;4.30;;
70532;SDS011;58088;51.186;17.130;2023-07-28T05:00:47;6.50;;;3.80;;
70532;SDS011;58088;51.186;17.130;2023-07-28T05:03:14;7.00;;;3.70;;
70532;SDS011;58088;51.186;17.130;2023-07-28T05:05:46;6.50;;;3.30;;
70532;SDS011;58088;51.186;17.130;2023-07-28T05:08:13;6.40;;;3.40;;
70532;SDS011;58088;51.186;17.130;2023-07-28T05:10:41;6.40;;;3.20;;
70532;SDS011;58088;51.186;17.130;2023-07-28T05:13:09;7.70;;;3.60;;
70532;SDS011;58088;51.186;17.130;2023-07-28T05:15:36;6.70;;;3.30;;
70532;SDS011;58088;51.186;17.130;2023-07-28T05:18:03;5.60;;;3.20;;
70532;SDS011;58088;51.186;17.130;2023-07-28T05:20:40;5.20;;;3.10;;
70532;SDS011;58088;51.186;17.130;2023-07-28T05:23:12;4.50;;;2.80;;
70532;SDS011;58088;51.186;17.130;2023-07-28T05:25:38;6.50;;;2.80;;
70532;SDS011;58088;51.186;17.130;2023-07-28T05:28:05;6.30;;;2.60;;
70532;SDS011;58088;51.186;17.130;2023-07-28T05:30:33;7.20;;;2.50;;
70532;SDS011;58088;51.186;17.130;2023-07-28T05:33:00;6.10;;;2.80;;
70532;SDS011;58088;51.186;17.130;2023-07-28T05:35:39;5.30;;;2.10;;
70532;SDS011;58088;51.186;17.130;2023-07-28T05:38:05;4.50;;;1.90;;
70532;SDS011;58088;51.186;17.130;2023-07-28T05:40:31;4.80;;;2.00;;
70532;SDS011;58088;51.186;17.130;2023-07-28T05:43:00;3.80;;;1.60;;
70532;SDS011;58088;51.186;17.130;2023-07-28T05:45:46;3.60;;;1.70;;
70532;SDS011;58088;51.186;17.130;2023-07-28T05:48:13;4.70;;;1.90;;
70532;SDS011;58088;51.186;17.130;2023-07-28T05:50:39;4.80;;;1.70;;
70532;SDS011;58088;51.186;17.130;2023-07-28T05:53:05;3.60;;;1.70;;
70532;SDS011;58088;51.186;17.130;2023-07-28T05:55:32;3.30;;;1.70;;
70532;SDS011;58088;51.186;17.130;2023-07-28T05:57:59;4.40;;;1.90;;
70532;SDS011;58088;51.186;17.130;2023-07-28T06:00:25;5.90;;;2.60;;
70532;SDS011;58088;51.186;17.130;2023-07-28T06:02:52;6.00;;;3.50;;
70532;SDS011;58088;51.186;17.130;2023-07-28T06:05:40;6.20;;;3.70;;
70532;SDS011;58088;51.186;17.130;2023-07-28T06:08:08;8.10;;;3.60;;
70532;SDS011;58088;51.186;17.130;2023-07-28T06:10:34;6.10;;;3.30;;
70532;SDS011;58088;51.186;17.130;2023-07-28T06:13:01;5.10;;;2.80;;
70532;SDS011;58088;51.186;17.130;2023-07-28T06:15:29;5.60;;;2.60;;
70532;SDS011;58088;51.186;17.130;2023-07-28T06:17:56;3.90;;;1.80;;
70532;SDS011;58088;51.186;17.130;2023-07-28T06:20:22;3.20;;;1.60;;
70532;SDS011;58088;51.186;17.130;2023-07-28T06:22:49;3.80;;;1.60;;
70532;SDS011;58088;51.186;17.130;2023-07-28T06:25:15;4.10;;;1.50;;
70532;SDS011;58088;51.186;17.130;2023-07-28T06:27:41;4.10;;;1.50;;
70532;SDS011;58088;51.186;17.130;2023-07-28T06:30:08;2.60;;;1.40;;
70532;SDS011;58088;51.186;17.130;2023-07-28T06:32:35;3.30;;;1.30;;
70532;SDS011;58088;51.186;17.130;2023-07-28T06:35:03;3.10;;;1.30;;
70532;SDS011;58088;51.186;17.130;2023-07-28T06:37:29;3.00;;;1.30;;
70532;SDS011;58088;51.186;17.130;2023-07-28T06:39:55;2.70;;;1.40;;
70532;SDS011;58088;51.186;17.130;2023-07-28T06:42:22;3.10;;;1.40;;
70532;SDS011;58088;51.186;17.130;2023-07-28T06:44:54;3.40;;;1.50;;
70532;SDS011;58088;51.186;17.130;2023-07-28T06:47:22;4.90;;;1.50;;
70532;SDS011;58088;51.186;17.130;2023-07-28T06:49:49;2.80;;;1.40;;
70532;SDS011;58088;51.186;17.130;2023-07-28T06:52:17;3.20;;;1.60;;
70532;SDS011;58088;51.186;17.130;2023-07-28T06:54:44;2.40;;;1.40;;
70532;SDS011;58088;51.186;17.130;2023-07-28T06:57:13;3.70;;;1.30;;
70532;SDS011;58088;51.186;17.130;2023-07-28T06:59:39;2.90;;;1.00;;
70532;SDS011;58088;51.186;17.130;2023-07-28T07:02:05;2.90;;;1.40;;
70532;SDS011;58088;51.186;17.130;2023-07-28T07:04:32;6.00;;;1.10;;
70532;SDS011;58088;51.186;17.130;2023-07-28T07:06:58;3.60;;;1.30;;
70532;SDS011;58088;51.186;17.130;2023-07-28T07:09:25;2.20;;;1.10;;
70532;SDS011;58088;51.186;17.130;2023-07-28T07:11:51;2.50;;;1.10;;
70532;SDS011;58088;51.186;17.130;2023-07-28T07:14:18;2.20;;;1.10;;
70532;SDS011;58088;51.186;17.130;2023-07-28T07:16:44;3.80;;;1.20;;
70532;SDS011;58088;51.186;17.130;2023-07-28T07:19:11;2.40;;;1.50;;
70532;SDS011;58088;51.186;17.130;2023-07-28T07:21:37;2.90;;;1.20;;
70532;SDS011;58088;51.186;17.130;2023-07-28T07:24:04;2.70;;;1.00;;
70532;SDS011;58088;51.186;17.130;2023-07-28T07:26:30;2.70;;;1.10;;
70532;SDS011;58088;51.186;17.130;2023-07-28T07:28:59;1.70;;;0.90;;
70532;SDS011;58088;51.186;17.130;2023-07-28T07:31:25;2.40;;;0.90;;
70532;SDS011;58088;51.186;17.130;2023-07-28T07:33:52;4.10;;;0.90;;
70532;SDS011;58088;51.186;17.130;2023-07-28T07:36:19;3.10;;;0.70;;
70532;SDS011;58088;51.186;17.130;2023-07-28T07:38:46;2.40;;;0.70;;
70532;SDS011;58088;51.186;17.130;2023-07-28T07:41:13;2.60;;;0.70;;
70532;SDS011;58088;51.186;17.130;2023-07-28T07:43:46;2.90;;;0.70;;
70532;SDS011;58088;51.186;17.130;2023-07-28T07:46:14;1.30;;;0.70;;
70532;SDS011;58088;51.186;17.130;2023-07-28T07:48:41;1.60;;;0.60;;
70532;SDS011;58088;51.186;17.130;2023-07-28T07:51:08;2.50;;;0.70;;
70532;SDS011;58088;51.186;17.130;2023-07-28T07:53:35;1.60;;;0.70;;
70532;SDS011;58088;51.186;17.130;2023-07-28T07:56:04;2.00;;;0.60;;
70532;SDS011;58088;51.186;17.130;2023-07-28T07:58:32;1.90;;;0.60;;
70532;SDS011;58088;51.186;17.130;2023-07-28T08:00:59;1.30;;;0.50;;
70532;SDS011;58088;51.186;17.130;2023-07-28T08:03:25;2.10;;;0.60;;
70532;SDS011;58088;51.186;17.130;2023-07-28T08:05:53;1.70;;;0.50;;
70532;SDS011;58088;51.186;17.130;2023-07-28T08:08:19;2.60;;;1.20;;
70532;SDS011;58088;51.186;17.130;2023-07-28T08:10:48;2.40;;;0.50;;
70532;SDS011;58088;51.186;17.130;2023-07-28T08:13:16;0.90;;;0.40;;
70532;SDS011;58088;51.186;17.130;2023-07-28T08:15:44;1.50;;;0.60;;
70532;SDS011;58088;51.186;17.130;2023-07-28T08:18:12;2.50;;;0.60;;
70532;SDS011;58088;51.186;17.130;2023-07-28T08:20:39;2.00;;;0.60;;
70532;SDS011;58088;51.186;17.130;2023-07-28T08:23:06;1.70;;;0.70;;
70532;SDS011;58088;51.186;17.130;2023-07-28T08:25:33;1.90;;;0.70;;
70532;SDS011;58088;51.186;17.130;2023-07-28T08:28:03;2.00;;;0.70;;
70532;SDS011;58088;51.186;17.130;2023-07-28T08:30:30;1.40;;;0.60;;
70532;SDS011;58088;51.186;17.130;2023-07-28T08:32:57;4.30;;;0.70;;
70532;SDS011;58088;51.186;17.130;2023-07-28T08:35:24;1.90;;;0.80;;
70532;SDS011;58088;51.186;17.130;2023-07-28T08:37:50;2.20;;;0.60;;
70532;SDS011;58088;51.186;17.130;2023-07-28T08:40:16;2.60;;;0.70;;
70532;SDS011;58088;51.186;17.130;2023-07-28T08:42:43;1.70;;;0.60;;
70532;SDS011;58088;51.186;17.130;2023-07-28T08:45:11;1.90;;;0.70;;
70532;SDS011;58088;51.186;17.130;2023-07-28T08:47:37;1.80;;;0.80;;
70532;SDS011;58088;51.186;17.130;2023-07-28T08:50:04;1.80;;;0.80;;
70532;SDS011;58088;51.186;17.130;2023-07-28T08:52:32;1.50;;;0.90;;
70532;SDS011;58088;51.186;17.130;2023-07-28T08:54:59;3.50;;;0.80;;
70532;SDS011;58088;51.186;17.130;2023-07-28T08:57:27;1.70;;;0.90;;
70532;SDS011;58088;51.186;17.130;2023-07-28T08:59:54;2.30;;;1.10;;
70532;SDS011;58088;51.186;17.130;2023-07-28T09:02:22;3.20;;;0.90;;
70532;SDS011;58088;51.186;17.130;2023-07-28T09:04:48;3.70;;;1.10;;
70532;SDS011;58088;51.186;17.130;2023-07-28T09:07:15;3.20;;;1.40;;
70532;SDS011;58088;51.186;17.130;2023-07-28T09:09:42;4.20;;;1.10;;
70532;SDS011;58088;51.186;17.130;2023-07-28T09:12:09;2.30;;;0.80;;
70532;SDS011;58088;51.186;17.130;2023-07-28T09:14:36;1.50;;;0.70;;
70532;SDS011;58088;51.186;17.130;2023-07-28T09:17:11;1.80;;;0.90;;
70532;SDS011;58088;51.186;17.130;2023-07-28T09:19:54;1.60;;;0.90;;
70532;SDS011;58088;51.186;17.130;2023-07-28T09:22:22;1.90;;;1.10;;
70532;SDS011;58088;51.186;17.130;2023-07-28T09:24:50;2.00;;;0.90;;
70532;SDS011;58088;51.186;17.130;2023-07-28T09:27:22;1.70;;;0.90;;
70532;SDS011;58088;51.186;17.130;2023-07-28T09:29:51;2.20;;;1.20;;
70532;SDS011;58088;51.186;17.130;2023-07-28T09:32:29;2.40;;;1.20;;
70532;SDS011;58088;51.186;17.130;2023-07-28T09:35:14;1.40;;;0.70;;
70532;SDS011;58088;51.186;17.130;2023-07-28T09:37:42;1.70;;;0.90;;
70532;SDS011;58088;51.186;17.130;2023-07-28T09:40:12;2.10;;;1.20;;
70532;SDS011;58088;51.186;17.130;2023-07-28T09:42:44;1.70;;;1.10;;
70532;SDS011;58088;51.186;17.130;2023-07-28T09:45:17;1.90;;;1.20;;
70532;SDS011;58088;51.186;17.130;2023-07-28T09:47:48;2.90;;;1.00;;
70532;SDS011;58088;51.186;17.130;2023-07-28T09:50:24;4.70;;;1.10;;
70532;SDS011;58088;51.186;17.130;2023-07-28T09:52:58;3.30;;;1.30;;
70532;SDS011;58088;51.186;17.130;2023-07-28T09:55:28;2.60;;;1.10;;
70532;SDS011;58088;51.186;17.130;2023-07-28T09:57:58;3.40;;;1.20;;
70532;SDS011;58088;51.186;17.130;2023-07-28T10:00:27;2.10;;;0.90;;
70532;SDS011;58088;51.186;17.130;2023-07-28T10:02:56;2.10;;;1.10;;
70532;SDS011;58088;51.186;17.130;2023-07-28T10:05:24;2.10;;;1.20;;
70532;SDS011;58088;51.186;17.130;2023-07-28T10:07:52;5.60;;;1.40;;
70532;SDS011;58088;51.186;17.130;2023-07-28T10:10:19;3.40;;;1.30;;
70532;SDS011;58088;51.186;17.130;2023-07-28T10:12:50;3.40;;;1.40;;
70532;SDS011;58088;51.186;17.130;2023-07-28T10:15:18;3.70;;;1.20;;
70532;SDS011;58088;51.186;17.130;2023-07-28T10:17:48;2.30;;;1.40;;
70532;SDS011;58088;51.186;17.130;2023-07-28T10:20:35;3.60;;;1.30;;
70532;SDS011;58088;51.186;17.130;2023-07-28T10:23:05;2.40;;;1.30;;
70532;SDS011;58088;51.186;17.130;2023-07-28T10:25:36;2.50;;;1.20;;
70532;SDS011;58088;51.186;17.130;2023-07-28T10:28:06;1.80;;;1.20;;
70532;SDS011;58088;51.186;17.130;2023-07-28T10:30:38;2.80;;;1.20;;
70532;SDS011;58088;51.186;17.130;2023-07-28T10:33:37;2.60;;;1.00;;
70532;SDS011;58088;51.186;17.130;2023-07-28T10:41:30;2.50;;;1.20;;
70532;SDS011;58088;51.186;17.130;2023-07-28T10:43:56;2.80;;;1.20;;
70532;SDS011;58088;51.186;17.130;2023-07-28T10:46:22;1.60;;;1.00;;
70532;SDS011;58088;51.186;17.130;2023-07-28T10:48:50;2.40;;;1.10;;
70532;SDS011;58088;51.186;17.130;2023-07-28T10:51:21;4.10;;;1.70;;
70532;SDS011;58088;51.186;17.130;2023-07-28T10:53:59;4.80;;;1.50;;
70532;SDS011;58088;51.186;17.130;2023-07-28T10:56:28;4.20;;;1.20;;
70532;SDS011;58088;51.186;17.130;2023-07-28T10:58:58;3.60;;;1.40;;
70532;SDS011;58088;51.186;17.130;2023-07-28T11:01:36;2.40;;;1.00;;
70532;SDS011;58088;51.186;17.130;2023-07-28T11:04:16;2.80;;;1.20;;
70532;SDS011;58088;51.186;17.130;2023-07-28T11:06:50;3.30;;;1.30;;
70532;SDS011;58088;51.186;17.130;2023-07-28T11:09:18;3.50;;;1.00;;
70532;SDS011;58088;51.186;17.130;2023-07-28T11:11:49;2.30;;;1.00;;
70532;SDS011;58088;51.186;17.130;2023-07-28T11:14:16;1.80;;;1.00;;
70532;SDS011;58088;51.186;17.130;2023-07-28T11:16:43;2.10;;;1.00;;
70532;SDS011;58088;51.186;17.130;2023-07-28T11:19:12;2.20;;;1.00;;
70532;SDS011;58088;51.186;17.130;2023-07-28T11:21:45;1.30;;;0.90;;
70532;SDS011;58088;51.186;17.130;2023-07-28T11:24:20;1.70;;;0.90;;
70532;SDS011;58088;51.186;17.130;2023-07-28T11:26:47;1.90;;;1.10;;
70532;SDS011;58088;51.186;17.130;2023-07-28T11:29:16;1.50;;;0.90;;
70532;SDS011;58088;51.186;17.130;2023-07-28T11:31:44;3.70;;;1.10;;
70532;SDS011;58088;51.186;17.130;2023-07-28T11:34:14;2.40;;;1.20;;
70532;SDS011;58088;51.186;17.130;2023-07-28T11:36:41;2.10;;;1.00;;
70532;SDS011;58088;51.186;17.130;2023-07-28T11:39:09;1.60;;;0.90;;
70532;SDS011;58088;51.186;17.130;2023-07-28T11:41:36;2.90;;;1.20;;
70532;SDS011;58088;51.186;17.130;2023-07-28T11:44:04;3.20;;;1.10;;
70532;SDS011;58088;51.186;17.130;2023-07-28T11:46:41;2.50;;;1.10;;
70532;SDS011;58088;51.186;17.130;2023-07-28T11:49:19;1.70;;;0.80;;
70532;SDS011;58088;51.186;17.130;2023-07-28T11:51:51;1.40;;;0.90;;
70532;SDS011;58088;51.186;17.130;2023-07-28T11:54:22;1.80;;;0.90;;
70532;SDS011;58088;51.186;17.130;2023-07-28T11:56:51;1.80;;;1.10;;
70532;SDS011;58088;51.186;17.130;2023-07-28T11:59:20;1.40;;;0.90;;
70532;SDS011;58088;51.186;17.130;2023-07-28T12:01:54;2.40;;;0.80;;
70532;SDS011;58088;51.186;17.130;2023-07-28T12:04:26;2.50;;;0.90;;
70532;SDS011;58088;51.186;17.130;2023-07-28T12:09:30;2.80;;;0.80;;
70532;SDS011;58088;51.186;17.130;2023-07-28T12:11:58;2.50;;;0.80;;
70532;SDS011;58088;51.186;17.130;2023-07-28T12:14:32;1.00;;;0.60;;
70532;SDS011;58088;51.186;17.130;2023-07-28T12:17:00;3.80;;;0.90;;
70532;SDS011;58088;51.186;17.130;2023-07-28T12:19:29;1.70;;;0.80;;
70532;SDS011;58088;51.186;17.130;2023-07-28T12:21:55;1.60;;;0.90;;
70532;SDS011;58088;51.186;17.130;2023-07-28T12:24:21;1.60;;;0.90;;
70532;SDS011;58088;51.186;17.130;2023-07-28T12:26:50;2.10;;;0.80;;
70532;SDS011;58088;51.186;17.130;2023-07-28T12:29:16;1.50;;;0.80;;
70532;SDS011;58088;51.186;17.130;2023-07-28T12:31:43;1.90;;;0.80;;
70532;SDS011;58088;51.186;17.130;2023-07-28T12:34:10;3.60;;;0.60;;
70532;SDS011;58088;51.186;17.130;2023-07-28T12:36:36;1.60;;;0.80;;
70532;SDS011;58088;51.186;17.130;2023-07-28T12:39:02;2.90;;;0.80;;
70532;SDS011;58088;51.186;17.130;2023-07-28T12:41:29;2.40;;;0.90;;
70532;SDS011;58088;51.186;17.130;2023-07-28T12:43:56;1.50;;;0.70;;
70532;SDS011;58088;51.186;17.130;2023-07-28T12:46:23;1.80;;;0.90;;
70532;SDS011;58088;51.186;17.130;2023-07-28T12:48:50;1.40;;;0.70;;
70532;SDS011;58088;51.186;17.130;2023-07-28T12:51:16;3.10;;;0.80;;
70532;SDS011;58088;51.186;17.130;2023-07-28T12:53:42;2.20;;;0.90;;
70532;SDS011;58088;51.186;17.130;2023-07-28T12:56:08;2.80;;;0.80;;
70532;SDS011;58088;51.186;17.130;2023-07-28T12:58:34;1.80;;;0.90;;
70532;SDS011;58088;51.186;17.130;2023-07-28T13:01:00;1.80;;;0.80;;
70532;SDS011;58088;51.186;17.130;2023-07-28T13:03:29;3.10;;;0.50;;
70532;SDS011;58088;51.186;17.130;2023-07-28T13:05:55;1.10;;;0.60;;
70532;SDS011;58088;51.186;17.130;2023-07-28T13:08:21;3.30;;;0.60;;
70532;SDS011;58088;51.186;17.130;2023-07-28T13:10:47;1.30;;;0.50;;
70532;SDS011;58088;51.186;17.130;2023-07-28T13:13:13;7.70;;;0.90;;
70532;SDS011;58088;51.186;17.130;2023-07-28T13:15:39;1.00;;;0.60;;
70532;SDS011;58088;51.186;17.130;2023-07-28T13:18:05;1.30;;;0.70;;
70532;SDS011;58088;51.186;17.130;2023-07-28T13:20:32;0.80;;;0.50;;
70532;SDS011;58088;51.186;17.130;2023-07-28T13:22:58;9.80;;;1.00;;
70532;SDS011;58088;51.186;17.130;2023-07-28T13:25:24;1.70;;;0.60;;
70532;SDS011;58088;51.186;17.130;2023-07-28T13:27:50;1.50;;;0.70;;
70532;SDS011;58088;51.186;17.130;2023-07-28T13:30:17;1.90;;;0.50;;
70532;SDS011;58088;51.186;17.130;2023-07-28T13:32:43;1.30;;;0.60;;
70532;SDS011;58088;51.186;17.130;2023-07-28T13:35:09;4.10;;;0.80;;
70532;SDS011;58088;51.186;17.130;2023-07-28T13:37:35;1.70;;;0.60;;
70532;SDS011;58088;51.186;17.130;2023-07-28T13:40:01;0.90;;;0.60;;
70532;SDS011;58088;51.186;17.130;2023-07-28T13:42:28;1.30;;;0.60;;
70532;SDS011;58088;51.186;17.130;2023-07-28T13:44:54;2.80;;;0.60;;
70532;SDS011;58088;51.186;17.130;2023-07-28T13:47:20;1.70;;;0.60;;
70532;SDS011;58088;51.186;17.130;2023-07-28T13:49:46;2.60;;;0.70;;
70532;SDS011;58088;51.186;17.130;2023-07-28T13:52:13;3.10;;;1.00;;
70532;SDS011;58088;51.186;17.130;2023-07-28T13:54:39;1.40;;;0.70;;
70532;SDS011;58088;51.186;17.130;2023-07-28T13:57:07;1.00;;;0.60;;
70532;SDS011;58088;51.186;17.130;2023-07-28T13:59:33;2.30;;;0.70;;
70532;SDS011;58088;51.186;17.130;2023-07-28T14:01:59;1.20;;;0.50;;
70532;SDS011;58088;51.186;17.130;2023-07-28T14:04:25;3.10;;;0.70;;
70532;SDS011;58088;51.186;17.130;2023-07-28T14:06:51;2.80;;;0.60;;
70532;SDS011;58088;51.186;17.130;2023-07-28T14:09:17;1.40;;;0.70;;
70532;SDS011;58088;51.186;17.130;2023-07-28T14:11:44;1.00;;;0.60;;
70532;SDS011;58088;51.186;17.130;2023-07-28T14:14:10;1.00;;;0.70;;
70532;SDS011;58088;51.186;17.130;2023-07-28T14:16:36;1.90;;;0.70;;
70532;SDS011;58088;51.186;17.130;2023-07-28T14:19:02;1.20;;;0.60;;
70532;SDS011;58088;51.186;17.130;2023-07-28T14:21:29;1.70;;;0.60;;
70532;SDS011;58088;51.186;17.130;2023-07-28T14:23:55;1.40;;;0.70;;
70532;SDS011;58088;51.186;17.130;2023-07-28T14:26:22;1.20;;;0.80;;
70532;SDS011;58088;51.186;17.130;2023-07-28T14:28:48;1.30;;;0.70;;
70532;SDS011;58088;51.186;17.130;2023-07-28T14:31:14;1.70;;;0.90;;
70532;SDS011;58088;51.186;17.130;2023-07-28T14:33:40;1.70;;;0.70;;
70532;SDS011;58088;51.186;17.130;2023-07-28T14:36:06;1.00;;;0.60;;
70532;SDS011;58088;51.186;17.130;2023-07-28T14:38:32;2.00;;;0.80;;
70532;SDS011;58088;51.186;17.130;2023-07-28T14:40:59;1.10;;;0.80;;
70532;SDS011;58088;51.186;17.130;2023-07-28T14:43:25;1.60;;;0.60;;
70532;SDS011;58088;51.186;17.130;2023-07-28T14:45:51;2.00;;;0.80;;
70532;SDS011;58088;51.186;17.130;2023-07-28T14:48:18;1.30;;;0.70;;